Peleus — V2FV2 — position and weather

sailwx.info

Track history (hours):
 
Tides and Currents Weather Stations Pressure Air Temp Water Temp Dewpoint Dewpoint Depression Visibility Wind Speed Wind Dir Waves Ship Positions

Peleus

Last reported at 2014-Oct-02 11:31 UTC. Time now 2014-Oct-02 12:34 UTC.
Position N 52°22' W 006°58'.

Length 88 m; draft 5.4 m.

Type: Ship. MMSI: 305810000.

Date/timePositionNaut miles runAvg speedWind from/ knotsBaromVisibWave heightAir tempDewpointWater temp
2014-Oct-02 11:31N 52°22' W 006°58'5 5.6
2014-Oct-02 10:33N 52°17' W 007°00'6 6.2
2014-Oct-02 09:33N 52°11' W 006°56'2 2.3
2014-Oct-02 08:32N 52°09' W 006°57'0 0.0
2014-Oct-02 07:32N 52°09' W 006°57'0 0.0
2014-Oct-02 06:32N 52°09' W 006°57'0 0.1
2014-Oct-02 05:32N 52°09' W 006°57'0 0.0
2014-Oct-02 04:32N 52°08' W 006°57'0 0.0
2014-Oct-02 03:32N 52°08' W 006°57'0 0.0
2014-Oct-02 02:32N 52°08' W 006°57'0 0.0
2014-Oct-02 01:29N 52°08' W 006°57'0 0.0
2014-Oct-01 22:26N 52°08' W 006°57'5 5.8
2014-Oct-01 21:34N 52°04' W 006°56'9 9.3
2014-Oct-01 20:33N 51°55' W 006°50'227 6.8
2014-Sep-30 11:14N 50°23' W 001°19'30 7.9
2014-Sep-30 07:30N 50°28' W 000°33'2210.4
2014-Sep-30 05:21N 50°33' E 000°01'8 9.9
2014-Sep-30 04:33N 50°35' E 000°13'10 9.7
2014-Sep-30 03:33N 50°37' E 000°28'9 8.7
2014-Sep-30 02:33N 50°41' E 000°40'8 8.2
2014-Sep-30 01:33N 50°46' E 000°51'9 8.0
2014-Sep-30 00:26N 50°51' E 001°03'9 8.8
2014-Sep-29 23:26N 50°57' E 001°13'910.6
2014-Sep-29 22:33N 51°03' E 001°24'1211.6
2014-Sep-29 21:33N 51°10' E 001°38'1110.6
2014-Sep-29 20:33N 51°18' E 001°50'9 9.1
2014-Sep-29 19:33N 51°25' E 001°59'9 9.1
2014-Sep-29 18:33N 51°22' E 002°13'8 8.2
2014-Sep-29 17:33N 51°22' E 002°26'8 7.8
2014-Sep-29 16:33N 51°23' E 002°39'8 7.6
2014-Sep-29 15:32N 51°22' E 002°51'8 7.8
2014-Sep-29 14:33N 51°22' E 003°03'7 7.5
2014-Sep-29 13:33N 51°24' E 003°15'8 8.4
2014-Sep-29 12:33N 51°25' E 003°28'8 8.3
2014-Sep-29 11:33N 51°26' E 003°41'9 8.7
2014-Sep-29 10:33N 51°21' E 003°53'6 6.5
2014-Sep-29 09:34N 51°23' E 004°02'9 8.9
2014-Sep-29 08:34N 51°21' E 004°16'5 4.8
2014-Sep-29 07:34N 51°17' E 004°20'3 2.7
2014-Sep-29 06:33N 51°19' E 004°19'3 0.8
2014-Sep-29 03:29N 51°22' E 004°17'0 0.0
2014-Sep-29 02:17N 51°22' E 004°17'0 0.0
2014-Sep-29 01:26N 51°22' E 004°17'0 0.0
2014-Sep-29 00:26N 51°22' E 004°17'0 0.0
2014-Sep-28 23:32N 51°22' E 004°17'0 0.0
2014-Sep-28 11:20N 51°22' E 004°17'0 0.1
2014-Sep-28 10:32N 51°22' E 004°17'0 0.0
2014-Sep-28 09:20N 51°22' E 004°17'0 0.0
2014-Sep-28 07:32N 51°22' E 004°17'0 0.0
2014-Sep-28 06:08N 51°22' E 004°17'0 0.0
2014-Sep-28 04:32N 51°22' E 004°17'0 0.0
2014-Sep-27 19:14N 51°22' E 004°17'0 0.0
2014-Sep-27 18:20N 51°22' E 004°17'0 0.0
2014-Sep-27 16:08N 51°22' E 004°17'0 0.0
2014-Sep-27 12:14N 51°22' E 004°17'0 0.0
2014-Sep-27 11:17N 51°22' E 004°17'0 0.0
2014-Sep-27 10:32N 51°22' E 004°17'0 0.0
2014-Sep-27 08:32N 51°22' E 004°17'0 0.0
2014-Sep-27 07:29N 51°22' E 004°17'0 0.0
2014-Sep-27 06:26N 51°22' E 004°17'0 0.0
2014-Sep-27 05:11N 51°22' E 004°17'0 0.0
2014-Sep-27 04:26N 51°22' E 004°17'0 0.0
2014-Sep-27 03:32N 51°22' E 004°17'0 0.0
2014-Sep-27 02:29N 51°22' E 004°17'0 0.0
2014-Sep-27 01:20N 51°22' E 004°17'0 0.0
2014-Sep-27 00:23N 51°22' E 004°17'0 0.0
2014-Sep-26 23:17N 51°22' E 004°17'0 0.0
2014-Sep-26 22:23N 51°22' E 004°17'0 0.0
2014-Sep-26 21:23N 51°22' E 004°17'0 0.0
2014-Sep-26 18:11N 51°22' E 004°17'0 0.5
2014-Sep-26 17:33N 51°22' E 004°17'7 6.6
2014-Sep-26 16:33N 51°16' E 004°22'2 1.7
2014-Sep-26 15:32N 51°15' E 004°24'0 0.0
2014-Sep-26 14:32N 51°15' E 004°24'0 0.0
2014-Sep-26 13:32N 51°15' E 004°24'0 0.0
2014-Sep-26 12:32N 51°15' E 004°24'0 0.0
2014-Sep-26 11:32N 51°15' E 004°24'0 0.0
2014-Sep-26 10:32N 51°15' E 004°24'0 0.0
2014-Sep-26 09:32N 51°15' E 004°24'0 0.0
2014-Sep-26 08:32N 51°15' E 004°24'0 0.0
2014-Sep-26 07:29N 51°15' E 004°24'0 0.0
2014-Sep-26 06:32N 51°15' E 004°24'0 0.0
2014-Sep-26 05:32N 51°15' E 004°24'0 0.0
2014-Sep-26 04:32N 51°15' E 004°24'0 0.0
2014-Sep-26 03:32N 51°15' E 004°24'0 0.0
2014-Sep-26 02:32N 51°15' E 004°24'0 0.0
2014-Sep-26 01:32N 51°15' E 004°24'0 0.0
2014-Sep-26 00:32N 51°15' E 004°24'0 0.0
2014-Sep-25 23:32N 51°15' E 004°24'0 0.0
2014-Sep-25 22:32N 51°15' E 004°24'0 0.0
2014-Sep-25 21:32N 51°15' E 004°24'0 0.0
2014-Sep-25 20:32N 51°15' E 004°24'0 0.0
2014-Sep-25 19:32N 51°15' E 004°24'0 0.0
2014-Sep-25 18:32N 51°15' E 004°24'0 0.0
2014-Sep-25 17:32N 51°15' E 004°24'0 0.0
2014-Sep-25 16:32N 51°15' E 004°24'0 0.0
2014-Sep-25 15:32N 51°15' E 004°24'0 0.0
2014-Sep-25 14:32N 51°15' E 004°24'0 0.0
2014-Sep-25 13:32N 51°15' E 004°24'0 0.0
2014-Sep-25 12:32N 51°15' E 004°24'1 0.5
2014-Sep-25 11:33N 51°15' E 004°24'1 1.0
2014-Sep-25 10:33N 51°15' E 004°23'0 0.0
2014-Sep-25 09:33N 51°15' E 004°23'0 0.0
2014-Sep-25 08:33N 51°15' E 004°23'0 0.0
2014-Sep-25 07:33N 51°15' E 004°23'0 0.0
2014-Sep-25 06:33N 51°15' E 004°23'0 0.0
2014-Sep-25 05:33N 51°15' E 004°23'0 0.0
2014-Sep-25 04:33N 51°15' E 004°23'0 0.0
2014-Sep-25 03:33N 51°15' E 004°23'0 0.0
2014-Sep-25 02:33N 51°15' E 004°23'0 0.0
2014-Sep-25 01:33N 51°15' E 004°23'0 0.0
2014-Sep-25 00:33N 51°15' E 004°23'0 0.0
2014-Sep-24 23:33N 51°15' E 004°23'0 0.0
2014-Sep-24 22:33N 51°15' E 004°23'0 0.0
2014-Sep-24 21:33N 51°15' E 004°23'0 0.0
2014-Sep-24 20:33N 51°15' E 004°23'0 0.0
2014-Sep-24 19:33N 51°15' E 004°23'0 0.0
2014-Sep-24 18:33N 51°15' E 004°23'0 0.0
2014-Sep-24 17:33N 51°15' E 004°23'0 0.0
2014-Sep-24 16:33N 51°15' E 004°23'0 0.0
2014-Sep-24 15:33N 51°15' E 004°23'0 0.0
2014-Sep-24 14:33N 51°15' E 004°23'4 3.7
2014-Sep-24 13:33N 51°18' E 004°19'3 2.5
2014-Sep-24 12:33N 51°21' E 004°17'2 2.3
2014-Sep-24 11:33N 51°21' E 004°14'7 7.0
2014-Sep-24 10:34N 51°23' E 004°03'5 5.1
2014-Sep-24 09:33N 51°22' E 003°55'8 8.5
2014-Sep-24 08:34N 51°24' E 003°42'9 8.6
2014-Sep-24 07:34N 51°25' E 003°28'8 7.5
2014-Sep-24 06:33N 51°24' E 003°16'7 7.3
2014-Sep-24 05:33N 51°24' E 003°04'1717.0
2014-Sep-24 04:32N 51°22' E 002°37'2 2.3
2014-Sep-24 03:28N 51°22' E 002°33'4 4.8
2014-Sep-24 02:32N 51°21' E 002°26'9 9.0
2014-Sep-24 01:33N 51°16' E 002°14'10 9.9
2014-Sep-24 00:33N 51°11' E 002°00'2510.5
2014-Sep-23 22:09N 50°54' E 001°30'  
Track history (hours):
 
Tides and Currents Weather Stations Pressure Air Temp Water Temp Dewpoint Dewpoint Depression Visibility Wind Speed Wind Dir Waves Ship Positions

Peleus

Last reported at 2014-Oct-02 11:31 UTC. Time now 2014-Oct-02 12:34 UTC.
Position N 52°22' W 006°58'.

Length 88 m; draft 5.4 m.

Type: Ship. MMSI: 305810000.

Date/timePositionNaut miles runAvg speedWind from/ knotsBaromVisibWave heightAir tempDewpointWater temp
2014-Oct-02 11:31N 52°22' W 006°58'5 5.6
2014-Oct-02 10:33N 52°17' W 007°00'6 6.2
2014-Oct-02 09:33N 52°11' W 006°56'2 2.3
2014-Oct-02 08:32N 52°09' W 006°57'0 0.0
2014-Oct-02 07:32N 52°09' W 006°57'0 0.0
2014-Oct-02 06:32N 52°09' W 006°57'0 0.1
2014-Oct-02 05:32N 52°09' W 006°57'0 0.0
2014-Oct-02 04:32N 52°08' W 006°57'0 0.0
2014-Oct-02 03:32N 52°08' W 006°57'0 0.0
2014-Oct-02 02:32N 52°08' W 006°57'0 0.0
2014-Oct-02 01:29N 52°08' W 006°57'0 0.0
2014-Oct-01 22:26N 52°08' W 006°57'5 5.8
2014-Oct-01 21:34N 52°04' W 006°56'9 9.3
2014-Oct-01 20:33N 51°55' W 006°50'227 6.8
2014-Sep-30 11:14N 50°23' W 001°19'30 7.9
2014-Sep-30 07:30N 50°28' W 000°33'2210.4
2014-Sep-30 05:21N 50°33' E 000°01'8 9.9
2014-Sep-30 04:33N 50°35' E 000°13'10 9.7
2014-Sep-30 03:33N 50°37' E 000°28'9 8.7
2014-Sep-30 02:33N 50°41' E 000°40'8 8.2
2014-Sep-30 01:33N 50°46' E 000°51'9 8.0
2014-Sep-30 00:26N 50°51' E 001°03'9 8.8
2014-Sep-29 23:26N 50°57' E 001°13'910.6
2014-Sep-29 22:33N 51°03' E 001°24'1211.6
2014-Sep-29 21:33N 51°10' E 001°38'1110.6
2014-Sep-29 20:33N 51°18' E 001°50'9 9.1
2014-Sep-29 19:33N 51°25' E 001°59'9 9.1
2014-Sep-29 18:33N 51°22' E 002°13'8 8.2
2014-Sep-29 17:33N 51°22' E 002°26'8 7.8
2014-Sep-29 16:33N 51°23' E 002°39'8 7.6
2014-Sep-29 15:32N 51°22' E 002°51'8 7.8
2014-Sep-29 14:33N 51°22' E 003°03'7 7.5
2014-Sep-29 13:33N 51°24' E 003°15'8 8.4
2014-Sep-29 12:33N 51°25' E 003°28'8 8.3
2014-Sep-29 11:33N 51°26' E 003°41'9 8.7
2014-Sep-29 10:33N 51°21' E 003°53'6 6.5
2014-Sep-29 09:34N 51°23' E 004°02'9 8.9
2014-Sep-29 08:34N 51°21' E 004°16'5 4.8
2014-Sep-29 07:34N 51°17' E 004°20'3 2.7
2014-Sep-29 06:33N 51°19' E 004°19'3 0.8
2014-Sep-29 03:29N 51°22' E 004°17'0 0.0
2014-Sep-29 02:17N 51°22' E 004°17'0 0.0
2014-Sep-29 01:26N 51°22' E 004°17'0 0.0
2014-Sep-29 00:26N 51°22' E 004°17'0 0.0
2014-Sep-28 23:32N 51°22' E 004°17'0 0.0
2014-Sep-28 11:20N 51°22' E 004°17'0 0.1
2014-Sep-28 10:32N 51°22' E 004°17'0 0.0
2014-Sep-28 09:20N 51°22' E 004°17'0 0.0
2014-Sep-28 07:32N 51°22' E 004°17'0 0.0
2014-Sep-28 06:08N 51°22' E 004°17'0 0.0
2014-Sep-28 04:32N 51°22' E 004°17'0 0.0
2014-Sep-27 19:14N 51°22' E 004°17'0 0.0
2014-Sep-27 18:20N 51°22' E 004°17'0 0.0
2014-Sep-27 16:08N 51°22' E 004°17'0 0.0
2014-Sep-27 12:14N 51°22' E 004°17'0 0.0
2014-Sep-27 11:17N 51°22' E 004°17'0 0.0
2014-Sep-27 10:32N 51°22' E 004°17'0 0.0
2014-Sep-27 08:32N 51°22' E 004°17'0 0.0
2014-Sep-27 07:29N 51°22' E 004°17'0 0.0
2014-Sep-27 06:26N 51°22' E 004°17'0 0.0
2014-Sep-27 05:11N 51°22' E 004°17'0 0.0
2014-Sep-27 04:26N 51°22' E 004°17'0 0.0
2014-Sep-27 03:32N 51°22' E 004°17'0 0.0
2014-Sep-27 02:29N 51°22' E 004°17'0 0.0
2014-Sep-27 01:20N 51°22' E 004°17'0 0.0
2014-Sep-27 00:23N 51°22' E 004°17'0 0.0
2014-Sep-26 23:17N 51°22' E 004°17'0 0.0
2014-Sep-26 22:23N 51°22' E 004°17'0 0.0
2014-Sep-26 21:23N 51°22' E 004°17'0 0.0
2014-Sep-26 18:11N 51°22' E 004°17'0 0.5
2014-Sep-26 17:33N 51°22' E 004°17'7 6.6
2014-Sep-26 16:33N 51°16' E 004°22'2 1.7
2014-Sep-26 15:32N 51°15' E 004°24'0 0.0
2014-Sep-26 14:32N 51°15' E 004°24'0 0.0
2014-Sep-26 13:32N 51°15' E 004°24'0 0.0
2014-Sep-26 12:32N 51°15' E 004°24'0 0.0
2014-Sep-26 11:32N 51°15' E 004°24'0 0.0
2014-Sep-26 10:32N 51°15' E 004°24'0 0.0
2014-Sep-26 09:32N 51°15' E 004°24'0 0.0
2014-Sep-26 08:32N 51°15' E 004°24'0 0.0
2014-Sep-26 07:29N 51°15' E 004°24'0 0.0
2014-Sep-26 06:32N 51°15' E 004°24'0 0.0
2014-Sep-26 05:32N 51°15' E 004°24'0 0.0
2014-Sep-26 04:32N 51°15' E 004°24'0 0.0
2014-Sep-26 03:32N 51°15' E 004°24'0 0.0
2014-Sep-26 02:32N 51°15' E 004°24'0 0.0
2014-Sep-26 01:32N 51°15' E 004°24'0 0.0
2014-Sep-26 00:32N 51°15' E 004°24'0 0.0
2014-Sep-25 23:32N 51°15' E 004°24'0 0.0
2014-Sep-25 22:32N 51°15' E 004°24'0 0.0
2014-Sep-25 21:32N 51°15' E 004°24'0 0.0
2014-Sep-25 20:32N 51°15' E 004°24'0 0.0
2014-Sep-25 19:32N 51°15' E 004°24'0 0.0
2014-Sep-25 18:32N 51°15' E 004°24'0 0.0
2014-Sep-25 17:32N 51°15' E 004°24'0 0.0
2014-Sep-25 16:32N 51°15' E 004°24'0 0.0
2014-Sep-25 15:32N 51°15' E 004°24'0 0.0
2014-Sep-25 14:32N 51°15' E 004°24'0 0.0
2014-Sep-25 13:32N 51°15' E 004°24'0 0.0
2014-Sep-25 12:32N 51°15' E 004°24'1 0.5
2014-Sep-25 11:33N 51°15' E 004°24'1 1.0
2014-Sep-25 10:33N 51°15' E 004°23'0 0.0
2014-Sep-25 09:33N 51°15' E 004°23'0 0.0
2014-Sep-25 08:33N 51°15' E 004°23'0 0.0
2014-Sep-25 07:33N 51°15' E 004°23'0 0.0
2014-Sep-25 06:33N 51°15' E 004°23'0 0.0
2014-Sep-25 05:33N 51°15' E 004°23'0 0.0
2014-Sep-25 04:33N 51°15' E 004°23'0 0.0
2014-Sep-25 03:33N 51°15' E 004°23'0 0.0
2014-Sep-25 02:33N 51°15' E 004°23'0 0.0
2014-Sep-25 01:33N 51°15' E 004°23'0 0.0
2014-Sep-25 00:33N 51°15' E 004°23'0 0.0
2014-Sep-24 23:33N 51°15' E 004°23'0 0.0
2014-Sep-24 22:33N 51°15' E 004°23'0 0.0
2014-Sep-24 21:33N 51°15' E 004°23'0 0.0
2014-Sep-24 20:33N 51°15' E 004°23'0 0.0
2014-Sep-24 19:33N 51°15' E 004°23'0 0.0
2014-Sep-24 18:33N 51°15' E 004°23'0 0.0
2014-Sep-24 17:33N 51°15' E 004°23'0 0.0
2014-Sep-24 16:33N 51°15' E 004°23'0 0.0
2014-Sep-24 15:33N 51°15' E 004°23'0 0.0
2014-Sep-24 14:33N 51°15' E 004°23'4 3.7
2014-Sep-24 13:33N 51°18' E 004°19'3 2.5
2014-Sep-24 12:33N 51°21' E 004°17'2 2.3
2014-Sep-24 11:33N 51°21' E 004°14'7 7.0
2014-Sep-24 10:34N 51°23' E 004°03'5 5.1
2014-Sep-24 09:33N 51°22' E 003°55'8 8.5
2014-Sep-24 08:34N 51°24' E 003°42'9 8.6
2014-Sep-24 07:34N 51°25' E 003°28'8 7.5
2014-Sep-24 06:33N 51°24' E 003°16'7 7.3
2014-Sep-24 05:33N 51°24' E 003°04'1717.0
2014-Sep-24 04:32N 51°22' E 002°37'2 2.3
2014-Sep-24 03:28N 51°22' E 002°33'4 4.8
2014-Sep-24 02:32N 51°21' E 002°26'9 9.0
2014-Sep-24 01:33N 51°16' E 002°14'10 9.9
2014-Sep-24 00:33N 51°11' E 002°00'2510.5
2014-Sep-23 22:09N 50°54' E 001°30'  

Dump ship's entire track history